sensor_id;sensor_type;location;lat;lon;timestamp;temperature;humidity
72206;DHT22;60111;48.286;7.812;2023-12-22T00:01:52;9.60;71.90
72206;DHT22;60111;48.286;7.812;2023-12-22T00:04:24;9.60;71.90
72206;DHT22;60111;48.286;7.812;2023-12-22T00:06:56;9.60;72.60
72206;DHT22;60111;48.286;7.812;2023-12-22T00:09:28;9.60;71.60
72206;DHT22;60111;48.286;7.812;2023-12-22T00:12:00;9.80;71.40
72206;DHT22;60111;48.286;7.812;2023-12-22T00:14:32;9.90;71.60
72206;DHT22;60111;48.286;7.812;2023-12-22T00:17:04;9.80;72.30
72206;DHT22;60111;48.286;7.812;2023-12-22T00:19:36;9.80;72.60
72206;DHT22;60111;48.286;7.812;2023-12-22T00:22:08;9.80;73.00
72206;DHT22;60111;48.286;7.812;2023-12-22T00:24:40;9.80;72.90
72206;DHT22;60111;48.286;7.812;2023-12-22T00:27:11;9.70;73.30
72206;DHT22;60111;48.286;7.812;2023-12-22T00:29:43;9.80;72.00
72206;DHT22;60111;48.286;7.812;2023-12-22T00:32:15;9.90;71.70
72206;DHT22;60111;48.286;7.812;2023-12-22T00:34:47;9.90;71.60
72206;DHT22;60111;48.286;7.812;2023-12-22T00:37:19;9.90;71.90
72206;DHT22;60111;48.286;7.812;2023-12-22T00:39:50;10.00;70.60
72206;DHT22;60111;48.286;7.812;2023-12-22T00:42:22;9.90;71.20
72206;DHT22;60111;48.286;7.812;2023-12-22T00:44:54;9.90;71.50
72206;DHT22;60111;48.286;7.812;2023-12-22T00:47:26;9.90;71.50
72206;DHT22;60111;48.286;7.812;2023-12-22T00:49:58;9.90;71.60
72206;DHT22;60111;48.286;7.812;2023-12-22T00:52:30;9.90;71.40
72206;DHT22;60111;48.286;7.812;2023-12-22T00:55:04;9.90;72.10
72206;DHT22;60111;48.286;7.812;2023-12-22T00:57:44;9.90;71.50
72206;DHT22;60111;48.286;7.812;2023-12-22T01:00:16;9.90;71.80
72206;DHT22;60111;48.286;7.812;2023-12-22T01:02:48;9.90;72.90
72206;DHT22;60111;48.286;7.812;2023-12-22T01:05:20;9.90;72.30
72206;DHT22;60111;48.286;7.812;2023-12-22T01:07:52;9.80;73.20
72206;DHT22;60111;48.286;7.812;2023-12-22T01:10:24;9.80;74.50
72206;DHT22;60111;48.286;7.812;2023-12-22T01:12:56;9.70;75.60
72206;DHT22;60111;48.286;7.812;2023-12-22T01:15:27;9.60;76.20
72206;DHT22;60111;48.286;7.812;2023-12-22T01:18:00;9.50;76.30
72206;DHT22;60111;48.286;7.812;2023-12-22T01:20:32;9.50;76.20
72206;DHT22;60111;48.286;7.812;2023-12-22T01:23:04;9.50;74.80
72206;DHT22;60111;48.286;7.812;2023-12-22T01:25:35;9.60;74.70
72206;DHT22;60111;48.286;7.812;2023-12-22T01:28:07;9.50;75.00
72206;DHT22;60111;48.286;7.812;2023-12-22T01:30:39;9.60;75.10
72206;DHT22;60111;48.286;7.812;2023-12-22T01:33:11;9.60;74.60
72206;DHT22;60111;48.286;7.812;2023-12-22T01:35:43;9.60;73.20
72206;DHT22;60111;48.286;7.812;2023-12-22T01:38:15;9.60;73.10
72206;DHT22;60111;48.286;7.812;2023-12-22T01:40:47;9.60;73.10
72206;DHT22;60111;48.286;7.812;2023-12-22T01:43:19;9.60;73.10
72206;DHT22;60111;48.286;7.812;2023-12-22T01:45:54;9.60;72.50
72206;DHT22;60111;48.286;7.812;2023-12-22T01:48:25;9.60;72.10
72206;DHT22;60111;48.286;7.812;2023-12-22T01:50:58;9.60;72.00
72206;DHT22;60111;48.286;7.812;2023-12-22T01:53:30;9.60;72.40
72206;DHT22;60111;48.286;7.812;2023-12-22T01:56:03;9.60;72.40
72206;DHT22;60111;48.286;7.812;2023-12-22T01:58:36;9.60;71.80
72206;DHT22;60111;48.286;7.812;2023-12-22T02:01:09;9.60;72.20
72206;DHT22;60111;48.286;7.812;2023-12-22T02:03:40;9.50;72.30
72206;DHT22;60111;48.286;7.812;2023-12-22T02:06:13;9.50;72.20
72206;DHT22;60111;48.286;7.812;2023-12-22T02:08:46;9.40;72.20
72206;DHT22;60111;48.286;7.812;2023-12-22T02:11:18;9.40;72.50
72206;DHT22;60111;48.286;7.812;2023-12-22T02:13:50;9.40;72.20
72206;DHT22;60111;48.286;7.812;2023-12-22T02:21:59;9.50;71.60
72206;DHT22;60111;48.286;7.812;2023-12-22T02:24:31;9.40;71.40
72206;DHT22;60111;48.286;7.812;2023-12-22T02:27:05;9.40;71.60
72206;DHT22;60111;48.286;7.812;2023-12-22T02:30:02;9.40;70.80
72206;DHT22;60111;48.286;7.812;2023-12-22T02:32:33;9.30;71.50
72206;DHT22;60111;48.286;7.812;2023-12-22T02:35:07;9.30;71.50
72206;DHT22;60111;48.286;7.812;2023-12-22T02:37:38;9.30;71.10
72206;DHT22;60111;48.286;7.812;2023-12-22T02:40:12;9.30;71.70
72206;DHT22;60111;48.286;7.812;2023-12-22T02:42:45;9.30;71.70
72206;DHT22;60111;48.286;7.812;2023-12-22T02:45:18;9.30;71.60
72206;DHT22;60111;48.286;7.812;2023-12-22T02:47:50;9.40;70.80
72206;DHT22;60111;48.286;7.812;2023-12-22T02:50:22;9.40;70.30
72206;DHT22;60111;48.286;7.812;2023-12-22T02:52:54;9.50;69.60
72206;DHT22;60111;48.286;7.812;2023-12-22T02:55:26;9.60;68.70
72206;DHT22;60111;48.286;7.812;2023-12-22T02:57:57;9.60;68.40
72206;DHT22;60111;48.286;7.812;2023-12-22T03:00:29;9.60;68.50
72206;DHT22;60111;48.286;7.812;2023-12-22T03:03:01;9.60;66.20
72206;DHT22;60111;48.286;7.812;2023-12-22T03:05:33;9.70;66.80
72206;DHT22;60111;48.286;7.812;2023-12-22T03:08:05;9.80;67.00
72206;DHT22;60111;48.286;7.812;2023-12-22T03:10:37;9.70;66.50
72206;DHT22;60111;48.286;7.812;2023-12-22T03:13:09;9.70;66.50
72206;DHT22;60111;48.286;7.812;2023-12-22T03:15:40;9.70;67.00
72206;DHT22;60111;48.286;7.812;2023-12-22T03:18:12;9.70;66.80
72206;DHT22;60111;48.286;7.812;2023-12-22T03:20:44;9.80;66.20
72206;DHT22;60111;48.286;7.812;2023-12-22T03:23:16;9.80;66.00
72206;DHT22;60111;48.286;7.812;2023-12-22T03:25:48;9.80;66.40
72206;DHT22;60111;48.286;7.812;2023-12-22T03:28:20;9.80;66.50
72206;DHT22;60111;48.286;7.812;2023-12-22T03:30:51;9.80;66.00
72206;DHT22;60111;48.286;7.812;2023-12-22T03:33:23;9.80;66.10
72206;DHT22;60111;48.286;7.812;2023-12-22T03:35:55;9.80;66.70
72206;DHT22;60111;48.286;7.812;2023-12-22T03:38:27;9.70;67.90
72206;DHT22;60111;48.286;7.812;2023-12-22T03:40:59;9.70;68.80
72206;DHT22;60111;48.286;7.812;2023-12-22T03:43:31;9.60;69.90
72206;DHT22;60111;48.286;7.812;2023-12-22T03:46:03;9.60;69.80
72206;DHT22;60111;48.286;7.812;2023-12-22T03:48:34;9.50;69.00
72206;DHT22;60111;48.286;7.812;2023-12-22T03:51:06;9.50;69.40
72206;DHT22;60111;48.286;7.812;2023-12-22T03:53:38;9.60;68.90
72206;DHT22;60111;48.286;7.812;2023-12-22T03:56:10;9.50;69.60
72206;DHT22;60111;48.286;7.812;2023-12-22T03:58:42;9.50;69.80
72206;DHT22;60111;48.286;7.812;2023-12-22T04:01:14;9.50;69.30
72206;DHT22;60111;48.286;7.812;2023-12-22T04:03:46;9.50;69.10
72206;DHT22;60111;48.286;7.812;2023-12-22T04:06:18;9.50;68.90
72206;DHT22;60111;48.286;7.812;2023-12-22T04:08:50;9.50;67.90
72206;DHT22;60111;48.286;7.812;2023-12-22T04:11:22;9.60;67.00
72206;DHT22;60111;48.286;7.812;2023-12-22T04:13:54;9.70;67.30
72206;DHT22;60111;48.286;7.812;2023-12-22T04:16:26;9.70;66.70
72206;DHT22;60111;48.286;7.812;2023-12-22T04:18:57;9.70;66.70
72206;DHT22;60111;48.286;7.812;2023-12-22T04:21:29;9.70;66.80
72206;DHT22;60111;48.286;7.812;2023-12-22T04:24:01;9.70;66.50
72206;DHT22;60111;48.286;7.812;2023-12-22T04:26:33;9.70;66.30
72206;DHT22;60111;48.286;7.812;2023-12-22T04:29:05;9.80;66.00
72206;DHT22;60111;48.286;7.812;2023-12-22T04:31:37;9.80;66.00
72206;DHT22;60111;48.286;7.812;2023-12-22T04:34:09;9.70;66.70
72206;DHT22;60111;48.286;7.812;2023-12-22T04:36:41;9.70;66.90
72206;DHT22;60111;48.286;7.812;2023-12-22T04:39:13;9.70;66.60
72206;DHT22;60111;48.286;7.812;2023-12-22T04:41:45;9.70;66.60
72206;DHT22;60111;48.286;7.812;2023-12-22T04:44:16;9.70;66.40
72206;DHT22;60111;48.286;7.812;2023-12-22T04:46:48;9.70;66.40
72206;DHT22;60111;48.286;7.812;2023-12-22T04:49:20;9.70;66.30
72206;DHT22;60111;48.286;7.812;2023-12-22T04:51:52;9.70;66.60
72206;DHT22;60111;48.286;7.812;2023-12-22T04:54:24;9.70;66.30
72206;DHT22;60111;48.286;7.812;2023-12-22T04:56:56;9.70;66.80
72206;DHT22;60111;48.286;7.812;2023-12-22T04:59:27;9.60;67.10
72206;DHT22;60111;48.286;7.812;2023-12-22T05:01:59;9.60;67.10
72206;DHT22;60111;48.286;7.812;2023-12-22T05:04:31;9.60;66.80
72206;DHT22;60111;48.286;7.812;2023-12-22T05:07:04;9.60;66.70
72206;DHT22;60111;48.286;7.812;2023-12-22T05:09:37;9.70;66.00
72206;DHT22;60111;48.286;7.812;2023-12-22T05:12:09;9.70;66.10
72206;DHT22;60111;48.286;7.812;2023-12-22T05:14:41;9.70;66.60
72206;DHT22;60111;48.286;7.812;2023-12-22T05:17:13;9.70;66.50
72206;DHT22;60111;48.286;7.812;2023-12-22T05:19:45;9.70;65.80
72206;DHT22;60111;48.286;7.812;2023-12-22T05:22:17;9.70;66.00
72206;DHT22;60111;48.286;7.812;2023-12-22T05:24:48;9.70;65.90
72206;DHT22;60111;48.286;7.812;2023-12-22T05:27:20;9.70;66.10
72206;DHT22;60111;48.286;7.812;2023-12-22T05:29:52;9.70;66.20
72206;DHT22;60111;48.286;7.812;2023-12-22T05:32:24;9.70;65.50
72206;DHT22;60111;48.286;7.812;2023-12-22T05:34:56;9.70;65.40
72206;DHT22;60111;48.286;7.812;2023-12-22T05:37:28;9.70;65.30
72206;DHT22;60111;48.286;7.812;2023-12-22T05:40:00;9.70;65.60
72206;DHT22;60111;48.286;7.812;2023-12-22T05:42:32;9.70;65.70
72206;DHT22;60111;48.286;7.812;2023-12-22T05:45:04;9.70;65.40
72206;DHT22;60111;48.286;7.812;2023-12-22T05:47:38;9.70;65.60
72206;DHT22;60111;48.286;7.812;2023-12-22T05:50:09;9.70;64.80
72206;DHT22;60111;48.286;7.812;2023-12-22T05:52:41;9.70;65.20
72206;DHT22;60111;48.286;7.812;2023-12-22T05:55:15;9.70;64.70
72206;DHT22;60111;48.286;7.812;2023-12-22T05:57:47;9.70;65.20
72206;DHT22;60111;48.286;7.812;2023-12-22T06:00:19;9.70;65.40
72206;DHT22;60111;48.286;7.812;2023-12-22T06:02:50;9.70;65.00
72206;DHT22;60111;48.286;7.812;2023-12-22T06:05:22;9.70;65.00
72206;DHT22;60111;48.286;7.812;2023-12-22T06:07:54;9.70;65.40
72206;DHT22;60111;48.286;7.812;2023-12-22T06:10:26;9.60;65.90
72206;DHT22;60111;48.286;7.812;2023-12-22T06:12:58;9.60;65.70
72206;DHT22;60111;48.286;7.812;2023-12-22T06:15:32;9.60;65.70
72206;DHT22;60111;48.286;7.812;2023-12-22T06:18:04;9.50;65.80
72206;DHT22;60111;48.286;7.812;2023-12-22T06:20:36;9.60;66.10
72206;DHT22;60111;48.286;7.812;2023-12-22T06:23:08;9.60;65.90
72206;DHT22;60111;48.286;7.812;2023-12-22T06:25:40;9.60;65.70
72206;DHT22;60111;48.286;7.812;2023-12-22T06:28:12;9.60;66.00
72206;DHT22;60111;48.286;7.812;2023-12-22T06:30:44;9.60;65.50
72206;DHT22;60111;48.286;7.812;2023-12-22T06:33:17;9.60;65.80
72206;DHT22;60111;48.286;7.812;2023-12-22T06:35:49;9.60;65.80
72206;DHT22;60111;48.286;7.812;2023-12-22T06:38:23;9.50;66.20
72206;DHT22;60111;48.286;7.812;2023-12-22T06:40:55;9.50;66.40
72206;DHT22;60111;48.286;7.812;2023-12-22T06:43:26;9.50;66.80
72206;DHT22;60111;48.286;7.812;2023-12-22T06:45:58;9.50;65.70
72206;DHT22;60111;48.286;7.812;2023-12-22T06:48:31;9.60;65.60
72206;DHT22;60111;48.286;7.812;2023-12-22T06:51:03;9.60;66.00
72206;DHT22;60111;48.286;7.812;2023-12-22T06:53:35;9.50;66.10
72206;DHT22;60111;48.286;7.812;2023-12-22T06:56:17;9.50;66.20
72206;DHT22;60111;48.286;7.812;2023-12-22T06:58:50;9.50;66.40
72206;DHT22;60111;48.286;7.812;2023-12-22T07:01:23;9.50;66.80
72206;DHT22;60111;48.286;7.812;2023-12-22T07:03:55;9.50;66.80
72206;DHT22;60111;48.286;7.812;2023-12-22T07:06:32;9.50;66.30
72206;DHT22;60111;48.286;7.812;2023-12-22T07:11:49;9.30;69.90
72206;DHT22;60111;48.286;7.812;2023-12-22T07:14:21;9.20;71.20
72206;DHT22;60111;48.286;7.812;2023-12-22T07:16:53;9.10;72.60
72206;DHT22;60111;48.286;7.812;2023-12-22T07:19:25;9.00;73.90
72206;DHT22;60111;48.286;7.812;2023-12-22T07:21:57;8.90;74.30
72206;DHT22;60111;48.286;7.812;2023-12-22T07:24:29;8.80;74.30
72206;DHT22;60111;48.286;7.812;2023-12-22T07:27:00;8.80;74.40
72206;DHT22;60111;48.286;7.812;2023-12-22T07:29:33;8.80;73.90
72206;DHT22;60111;48.286;7.812;2023-12-22T07:32:05;8.70;74.30
72206;DHT22;60111;48.286;7.812;2023-12-22T07:34:37;8.70;74.30
72206;DHT22;60111;48.286;7.812;2023-12-22T07:37:08;8.70;74.30
72206;DHT22;60111;48.286;7.812;2023-12-22T07:39:40;8.60;75.70
72206;DHT22;60111;48.286;7.812;2023-12-22T07:42:14;8.60;75.40
72206;DHT22;60111;48.286;7.812;2023-12-22T07:44:46;8.60;76.00
72206;DHT22;60111;48.286;7.812;2023-12-22T07:47:18;8.50;75.70
72206;DHT22;60111;48.286;7.812;2023-12-22T07:49:49;8.50;76.40
72206;DHT22;60111;48.286;7.812;2023-12-22T07:52:21;8.50;75.90
72206;DHT22;60111;48.286;7.812;2023-12-22T07:54:53;8.50;76.30
72206;DHT22;60111;48.286;7.812;2023-12-22T07:57:25;8.50;76.50
72206;DHT22;60111;48.286;7.812;2023-12-22T07:59:57;8.50;75.60
72206;DHT22;60111;48.286;7.812;2023-12-22T08:02:29;8.60;75.00
72206;DHT22;60111;48.286;7.812;2023-12-22T08:05:00;8.60;74.70
72206;DHT22;60111;48.286;7.812;2023-12-22T08:07:32;8.50;76.00
72206;DHT22;60111;48.286;7.812;2023-12-22T08:10:04;8.50;77.00
72206;DHT22;60111;48.286;7.812;2023-12-22T08:12:37;8.40;77.80
72206;DHT22;60111;48.286;7.812;2023-12-22T08:15:09;8.30;78.10
72206;DHT22;60111;48.286;7.812;2023-12-22T08:17:48;8.30;78.40
72206;DHT22;60111;48.286;7.812;2023-12-22T08:20:20;8.20;78.60
72206;DHT22;60111;48.286;7.812;2023-12-22T08:22:52;8.10;78.90
72206;DHT22;60111;48.286;7.812;2023-12-22T08:25:24;8.10;79.40
72206;DHT22;60111;48.286;7.812;2023-12-22T08:27:55;8.10;79.30
72206;DHT22;60111;48.286;7.812;2023-12-22T08:30:28;8.00;80.00
72206;DHT22;60111;48.286;7.812;2023-12-22T08:33:00;8.00;80.40
72206;DHT22;60111;48.286;7.812;2023-12-22T08:35:32;8.00;80.60
72206;DHT22;60111;48.286;7.812;2023-12-22T08:38:04;7.90;80.90
72206;DHT22;60111;48.286;7.812;2023-12-22T08:40:36;7.90;80.70
72206;DHT22;60111;48.286;7.812;2023-12-22T08:43:08;7.90;80.70
72206;DHT22;60111;48.286;7.812;2023-12-22T08:45:40;7.90;80.60
72206;DHT22;60111;48.286;7.812;2023-12-22T08:48:11;7.90;80.70
72206;DHT22;60111;48.286;7.812;2023-12-22T08:50:43;7.90;80.60
72206;DHT22;60111;48.286;7.812;2023-12-22T08:53:15;7.90;81.00
72206;DHT22;60111;48.286;7.812;2023-12-22T08:55:47;7.90;80.90
72206;DHT22;60111;48.286;7.812;2023-12-22T08:58:19;7.90;80.70
72206;DHT22;60111;48.286;7.812;2023-12-22T09:00:50;7.90;81.00
72206;DHT22;60111;48.286;7.812;2023-12-22T09:03:22;7.90;80.90
72206;DHT22;60111;48.286;7.812;2023-12-22T09:05:54;7.90;80.70
72206;DHT22;60111;48.286;7.812;2023-12-22T09:08:26;8.00;79.80
72206;DHT22;60111;48.286;7.812;2023-12-22T09:10:58;8.10;79.60
72206;DHT22;60111;48.286;7.812;2023-12-22T09:13:30;8.00;79.60
72206;DHT22;60111;48.286;7.812;2023-12-22T09:16:02;8.00;79.60
72206;DHT22;60111;48.286;7.812;2023-12-22T09:18:34;8.10;79.20
72206;DHT22;60111;48.286;7.812;2023-12-22T09:21:06;8.10;78.60
72206;DHT22;60111;48.286;7.812;2023-12-22T09:23:38;8.10;78.90
72206;DHT22;60111;48.286;7.812;2023-12-22T09:26:10;8.20;78.70
72206;DHT22;60111;48.286;7.812;2023-12-22T09:28:42;8.10;78.70
72206;DHT22;60111;48.286;7.812;2023-12-22T09:31:14;8.20;78.80
72206;DHT22;60111;48.286;7.812;2023-12-22T09:33:46;8.20;78.90
72206;DHT22;60111;48.286;7.812;2023-12-22T09:36:17;8.20;79.10
72206;DHT22;60111;48.286;7.812;2023-12-22T09:38:49;8.20;79.10
72206;DHT22;60111;48.286;7.812;2023-12-22T09:41:21;8.20;79.20
72206;DHT22;60111;48.286;7.812;2023-12-22T09:43:53;8.20;79.50
72206;DHT22;60111;48.286;7.812;2023-12-22T09:46:26;8.20;79.70
72206;DHT22;60111;48.286;7.812;2023-12-22T09:48:58;8.10;79.80
72206;DHT22;60111;48.286;7.812;2023-12-22T09:51:31;8.20;79.90
72206;DHT22;60111;48.286;7.812;2023-12-22T09:54:03;8.20;80.10
72206;DHT22;60111;48.286;7.812;2023-12-22T09:56:36;8.10;80.00
72206;DHT22;60111;48.286;7.812;2023-12-22T09:59:11;8.10;80.40
72206;DHT22;60111;48.286;7.812;2023-12-22T10:01:45;8.10;80.60
72206;DHT22;60111;48.286;7.812;2023-12-22T10:04:18;8.10;80.20
72206;DHT22;60111;48.286;7.812;2023-12-22T10:06:51;8.10;80.20
72206;DHT22;60111;48.286;7.812;2023-12-22T10:09:23;8.20;79.70
72206;DHT22;60111;48.286;7.812;2023-12-22T10:11:55;8.20;79.60
72206;DHT22;60111;48.286;7.812;2023-12-22T10:14:28;8.20;79.90
72206;DHT22;60111;48.286;7.812;2023-12-22T10:17:01;8.20;80.00
72206;DHT22;60111;48.286;7.812;2023-12-22T10:19:33;8.10;80.20
72206;DHT22;60111;48.286;7.812;2023-12-22T10:22:05;8.20;79.90
72206;DHT22;60111;48.286;7.812;2023-12-22T10:24:37;8.20;79.70
72206;DHT22;60111;48.286;7.812;2023-12-22T10:27:10;8.20;79.60
72206;DHT22;60111;48.286;7.812;2023-12-22T10:29:42;8.30;78.90
72206;DHT22;60111;48.286;7.812;2023-12-22T10:32:14;8.30;78.80
72206;DHT22;60111;48.286;7.812;2023-12-22T10:34:45;8.40;78.80
72206;DHT22;60111;48.286;7.812;2023-12-22T10:37:17;8.40;78.80
72206;DHT22;60111;48.286;7.812;2023-12-22T10:39:52;8.50;78.70
72206;DHT22;60111;48.286;7.812;2023-12-22T10:42:25;8.50;79.40
72206;DHT22;60111;48.286;7.812;2023-12-22T10:44:57;8.50;79.80
72206;DHT22;60111;48.286;7.812;2023-12-22T10:47:29;8.40;80.30
72206;DHT22;60111;48.286;7.812;2023-12-22T10:50:02;8.40;81.10
72206;DHT22;60111;48.286;7.812;2023-12-22T10:52:35;8.30;81.70
72206;DHT22;60111;48.286;7.812;2023-12-22T10:55:07;8.30;82.50
72206;DHT22;60111;48.286;7.812;2023-12-22T10:57:40;8.20;83.10
72206;DHT22;60111;48.286;7.812;2023-12-22T11:00:12;8.20;83.90
72206;DHT22;60111;48.286;7.812;2023-12-22T11:02:47;8.20;83.90
72206;DHT22;60111;48.286;7.812;2023-12-22T11:05:22;8.10;84.60
72206;DHT22;60111;48.286;7.812;2023-12-22T11:07:56;8.10;85.00
72206;DHT22;60111;48.286;7.812;2023-12-22T11:10:31;8.20;84.80
72206;DHT22;60111;48.286;7.812;2023-12-22T11:13:03;8.10;85.70
72206;DHT22;60111;48.286;7.812;2023-12-22T11:15:36;8.10;85.90
72206;DHT22;60111;48.286;7.812;2023-12-22T11:18:08;8.20;85.90
72206;DHT22;60111;48.286;7.812;2023-12-22T11:20:40;8.20;86.10
72206;DHT22;60111;48.286;7.812;2023-12-22T11:23:13;8.20;86.20
72206;DHT22;60111;48.286;7.812;2023-12-22T11:25:46;8.30;86.40
72206;DHT22;60111;48.286;7.812;2023-12-22T11:28:20;8.20;86.20
72206;DHT22;60111;48.286;7.812;2023-12-22T11:30:54;8.30;86.30
72206;DHT22;60111;48.286;7.812;2023-12-22T11:33:26;8.30;86.50
72206;DHT22;60111;48.286;7.812;2023-12-22T11:36:00;8.30;86.60
72206;DHT22;60111;48.286;7.812;2023-12-22T11:38:32;8.30;86.50
72206;DHT22;60111;48.286;7.812;2023-12-22T11:41:05;8.30;86.50
72206;DHT22;60111;48.286;7.812;2023-12-22T11:43:38;8.30;86.10
72206;DHT22;60111;48.286;7.812;2023-12-22T11:46:10;8.30;86.40
72206;DHT22;60111;48.286;7.812;2023-12-22T11:48:49;8.30;86.10
72206;DHT22;60111;48.286;7.812;2023-12-22T11:51:21;8.30;86.50
72206;DHT22;60111;48.286;7.812;2023-12-22T11:53:53;8.40;86.40
72206;DHT22;60111;48.286;7.812;2023-12-22T11:56:25;8.40;86.70
72206;DHT22;60111;48.286;7.812;2023-12-22T11:58:57;8.40;86.70
72206;DHT22;60111;48.286;7.812;2023-12-22T12:01:30;8.40;86.40
72206;DHT22;60111;48.286;7.812;2023-12-22T12:04:05;8.40;86.60
72206;DHT22;60111;48.286;7.812;2023-12-22T12:06:37;8.30;86.70
72206;DHT22;60111;48.286;7.812;2023-12-22T12:09:10;8.40;86.50
72206;DHT22;60111;48.286;7.812;2023-12-22T12:14:28;8.50;85.90
72206;DHT22;60111;48.286;7.812;2023-12-22T12:17:08;8.50;86.30
72206;DHT22;60111;48.286;7.812;2023-12-22T12:19:41;8.50;86.40
72206;DHT22;60111;48.286;7.812;2023-12-22T12:22:14;8.50;86.50
72206;DHT22;60111;48.286;7.812;2023-12-22T12:24:46;8.50;86.40
72206;DHT22;60111;48.286;7.812;2023-12-22T12:27:18;8.50;86.50
72206;DHT22;60111;48.286;7.812;2023-12-22T12:29:50;8.50;87.10
72206;DHT22;60111;48.286;7.812;2023-12-22T12:32:24;8.50;86.90
72206;DHT22;60111;48.286;7.812;2023-12-22T12:34:55;8.50;87.10
72206;DHT22;60111;48.286;7.812;2023-12-22T12:37:28;8.50;87.60
72206;DHT22;60111;48.286;7.812;2023-12-22T12:40:00;8.60;87.60
72206;DHT22;60111;48.286;7.812;2023-12-22T12:42:35;8.60;87.70
72206;DHT22;60111;48.286;7.812;2023-12-22T12:45:07;8.70;88.20
72206;DHT22;60111;48.286;7.812;2023-12-22T12:47:40;8.70;88.00
72206;DHT22;60111;48.286;7.812;2023-12-22T12:50:12;8.70;88.30
72206;DHT22;60111;48.286;7.812;2023-12-22T12:52:43;8.70;88.60
72206;DHT22;60111;48.286;7.812;2023-12-22T12:55:18;8.70;88.80
72206;DHT22;60111;48.286;7.812;2023-12-22T12:57:53;8.70;88.90
72206;DHT22;60111;48.286;7.812;2023-12-22T13:00:31;8.70;88.90
72206;DHT22;60111;48.286;7.812;2023-12-22T13:03:03;8.80;89.10
72206;DHT22;60111;48.286;7.812;2023-12-22T13:05:35;8.80;88.90
72206;DHT22;60111;48.286;7.812;2023-12-22T13:08:08;8.80;89.00
72206;DHT22;60111;48.286;7.812;2023-12-22T13:10:40;8.80;89.20
72206;DHT22;60111;48.286;7.812;2023-12-22T13:13:12;8.90;89.10
72206;DHT22;60111;48.286;7.812;2023-12-22T13:15:44;8.90;89.00
72206;DHT22;60111;48.286;7.812;2023-12-22T13:18:16;8.90;89.00
72206;DHT22;60111;48.286;7.812;2023-12-22T13:20:48;8.90;89.10
72206;DHT22;60111;48.286;7.812;2023-12-22T13:23:20;8.90;89.20
72206;DHT22;60111;48.286;7.812;2023-12-22T13:25:52;8.90;89.20
72206;DHT22;60111;48.286;7.812;2023-12-22T13:28:27;8.90;89.20
72206;DHT22;60111;48.286;7.812;2023-12-22T13:31:02;8.90;89.30
72206;DHT22;60111;48.286;7.812;2023-12-22T13:33:34;9.00;89.40
72206;DHT22;60111;48.286;7.812;2023-12-22T13:36:06;8.90;89.50
72206;DHT22;60111;48.286;7.812;2023-12-22T13:38:38;8.90;89.70
72206;DHT22;60111;48.286;7.812;2023-12-22T13:41:10;9.00;89.50
72206;DHT22;60111;48.286;7.812;2023-12-22T13:43:42;9.00;89.20
72206;DHT22;60111;48.286;7.812;2023-12-22T13:46:15;9.00;89.10
72206;DHT22;60111;48.286;7.812;2023-12-22T13:48:47;9.00;89.10
72206;DHT22;60111;48.286;7.812;2023-12-22T13:51:19;9.00;88.80
72206;DHT22;60111;48.286;7.812;2023-12-22T13:53:51;9.10;88.90
72206;DHT22;60111;48.286;7.812;2023-12-22T13:56:23;9.10;88.90
72206;DHT22;60111;48.286;7.812;2023-12-22T13:58:55;9.10;88.80
72206;DHT22;60111;48.286;7.812;2023-12-22T14:01:27;9.10;89.00
72206;DHT22;60111;48.286;7.812;2023-12-22T14:03:59;9.10;89.00
72206;DHT22;60111;48.286;7.812;2023-12-22T14:06:31;9.10;88.70
72206;DHT22;60111;48.286;7.812;2023-12-22T14:09:03;9.10;88.50
72206;DHT22;60111;48.286;7.812;2023-12-22T14:11:35;9.20;88.30
72206;DHT22;60111;48.286;7.812;2023-12-22T14:14:08;9.20;88.10
72206;DHT22;60111;48.286;7.812;2023-12-22T14:16:42;9.20;88.00
72206;DHT22;60111;48.286;7.812;2023-12-22T14:19:13;9.20;87.60
72206;DHT22;60111;48.286;7.812;2023-12-22T14:21:45;9.30;87.50
72206;DHT22;60111;48.286;7.812;2023-12-22T14:24:17;9.30;87.60
72206;DHT22;60111;48.286;7.812;2023-12-22T14:26:52;9.30;87.70
72206;DHT22;60111;48.286;7.812;2023-12-22T14:29:25;9.30;88.10
72206;DHT22;60111;48.286;7.812;2023-12-22T14:31:57;9.20;88.20
72206;DHT22;60111;48.286;7.812;2023-12-22T14:34:29;9.20;88.30
72206;DHT22;60111;48.286;7.812;2023-12-22T14:37:03;9.20;88.60
72206;DHT22;60111;48.286;7.812;2023-12-22T14:39:35;9.20;88.70
72206;DHT22;60111;48.286;7.812;2023-12-22T14:42:06;9.20;88.80
72206;DHT22;60111;48.286;7.812;2023-12-22T14:44:38;9.10;89.30
72206;DHT22;60111;48.286;7.812;2023-12-22T14:47:10;9.20;89.50
72206;DHT22;60111;48.286;7.812;2023-12-22T14:49:42;9.10;89.60
72206;DHT22;60111;48.286;7.812;2023-12-22T14:52:14;9.10;89.80
72206;DHT22;60111;48.286;7.812;2023-12-22T14:54:46;9.10;89.80
72206;DHT22;60111;48.286;7.812;2023-12-22T14:57:18;9.10;89.80
72206;DHT22;60111;48.286;7.812;2023-12-22T14:59:50;9.00;90.10
72206;DHT22;60111;48.286;7.812;2023-12-22T15:02:22;9.10;90.20
72206;DHT22;60111;48.286;7.812;2023-12-22T15:04:53;9.10;90.10
72206;DHT22;60111;48.286;7.812;2023-12-22T15:07:25;9.10;89.90
72206;DHT22;60111;48.286;7.812;2023-12-22T15:09:57;9.10;89.90
72206;DHT22;60111;48.286;7.812;2023-12-22T15:12:29;9.10;90.00
72206;DHT22;60111;48.286;7.812;2023-12-22T15:15:03;9.10;89.90
72206;DHT22;60111;48.286;7.812;2023-12-22T15:17:35;9.10;89.90
72206;DHT22;60111;48.286;7.812;2023-12-22T15:20:07;9.10;89.80
72206;DHT22;60111;48.286;7.812;2023-12-22T15:22:40;9.10;89.80
72206;DHT22;60111;48.286;7.812;2023-12-22T15:25:12;9.10;89.80
72206;DHT22;60111;48.286;7.812;2023-12-22T15:27:44;9.10;89.50
72206;DHT22;60111;48.286;7.812;2023-12-22T15:33:07;9.20;89.40
72206;DHT22;60111;48.286;7.812;2023-12-22T15:35:39;9.20;89.10
72206;DHT22;60111;48.286;7.812;2023-12-22T15:38:10;9.10;88.90
72206;DHT22;60111;48.286;7.812;2023-12-22T15:40:42;9.20;88.70
72206;DHT22;60111;48.286;7.812;2023-12-22T15:43:14;9.30;88.20
72206;DHT22;60111;48.286;7.812;2023-12-22T15:45:46;9.30;87.80
72206;DHT22;60111;48.286;7.812;2023-12-22T15:48:18;9.30;86.90
72206;DHT22;60111;48.286;7.812;2023-12-22T15:50:50;9.30;87.10
72206;DHT22;60111;48.286;7.812;2023-12-22T15:53:22;9.40;87.00
72206;DHT22;60111;48.286;7.812;2023-12-22T15:55:53;9.40;86.70
72206;DHT22;60111;48.286;7.812;2023-12-22T15:58:25;9.40;86.60
72206;DHT22;60111;48.286;7.812;2023-12-22T16:00:57;9.40;86.10
72206;DHT22;60111;48.286;7.812;2023-12-22T16:03:29;9.40;85.70
72206;DHT22;60111;48.286;7.812;2023-12-22T16:06:06;9.50;84.90
72206;DHT22;60111;48.286;7.812;2023-12-22T16:08:35;9.50;84.30
72206;DHT22;60111;48.286;7.812;2023-12-22T16:11:06;9.60;83.70
72206;DHT22;60111;48.286;7.812;2023-12-22T16:13:38;9.60;83.30
72206;DHT22;60111;48.286;7.812;2023-12-22T16:16:16;9.60;83.30
72206;DHT22;60111;48.286;7.812;2023-12-22T16:18:46;9.60;83.60
72206;DHT22;60111;48.286;7.812;2023-12-22T16:21:18;9.60;84.00
72206;DHT22;60111;48.286;7.812;2023-12-22T16:23:49;9.60;83.90
72206;DHT22;60111;48.286;7.812;2023-12-22T16:26:21;9.60;83.50
72206;DHT22;60111;48.286;7.812;2023-12-22T16:28:53;9.60;83.60
72206;DHT22;60111;48.286;7.812;2023-12-22T16:31:25;9.60;83.80